sensor_id;sensor_type;location;lat;lon;timestamp;P1;durP1;ratioP1;P2;durP2;ratioP2
12480;SDS011;6305;48.398;11.762;2023-03-13T00:00:56;9.77;;;6.43;;
12480;SDS011;6305;48.398;11.762;2023-03-13T00:03:25;10.90;;;6.32;;
12480;SDS011;6305;48.398;11.762;2023-03-13T00:05:57;11.18;;;6.78;;
12480;SDS011;6305;48.398;11.762;2023-03-13T00:08:27;9.20;;;5.32;;
12480;SDS011;6305;48.398;11.762;2023-03-13T00:10:55;12.60;;;5.90;;
12480;SDS011;6305;48.398;11.762;2023-03-13T00:13:23;12.20;;;6.13;;
12480;SDS011;6305;48.398;11.762;2023-03-13T00:15:58;13.85;;;6.68;;
12480;SDS011;6305;48.398;11.762;2023-03-13T00:18:26;13.63;;;6.43;;
12480;SDS011;6305;48.398;11.762;2023-03-13T00:20:58;11.70;;;6.18;;
12480;SDS011;6305;48.398;11.762;2023-03-13T00:23:25;10.82;;;6.25;;
12480;SDS011;6305;48.398;11.762;2023-03-13T00:25:56;11.32;;;6.30;;
12480;SDS011;6305;48.398;11.762;2023-03-13T00:28:24;10.15;;;5.75;;
12480;SDS011;6305;48.398;11.762;2023-03-13T00:31:02;10.07;;;5.53;;
12480;SDS011;6305;48.398;11.762;2023-03-13T00:33:30;12.13;;;5.95;;
12480;SDS011;6305;48.398;11.762;2023-03-13T00:36:00;9.40;;;5.50;;
12480;SDS011;6305;48.398;11.762;2023-03-13T00:38:28;12.03;;;5.70;;
12480;SDS011;6305;48.398;11.762;2023-03-13T00:41:00;15.05;;;6.30;;
12480;SDS011;6305;48.398;11.762;2023-03-13T00:43:28;9.05;;;5.07;;
12480;SDS011;6305;48.398;11.762;2023-03-13T00:45:55;8.83;;;5.37;;
12480;SDS011;6305;48.398;11.762;2023-03-13T00:48:24;10.77;;;5.75;;
12480;SDS011;6305;48.398;11.762;2023-03-13T00:50:52;13.37;;;6.00;;
12480;SDS011;6305;48.398;11.762;2023-03-13T00:53:21;10.60;;;5.57;;
12480;SDS011;6305;48.398;11.762;2023-03-13T00:55:53;10.80;;;6.37;;
12480;SDS011;6305;48.398;11.762;2023-03-13T00:58:22;8.70;;;5.30;;
12480;SDS011;6305;48.398;11.762;2023-03-13T01:00:50;9.77;;;5.67;;
12480;SDS011;6305;48.398;11.762;2023-03-13T01:03:17;12.35;;;6.72;;
12480;SDS011;6305;48.398;11.762;2023-03-13T01:05:44;12.23;;;6.20;;
12480;SDS011;6305;48.398;11.762;2023-03-13T01:08:11;12.03;;;6.33;;
12480;SDS011;6305;48.398;11.762;2023-03-13T01:10:39;11.37;;;6.03;;
12480;SDS011;6305;48.398;11.762;2023-03-13T01:13:06;10.03;;;6.17;;
12480;SDS011;6305;48.398;11.762;2023-03-13T01:15:33;9.80;;;5.87;;
12480;SDS011;6305;48.398;11.762;2023-03-13T01:18:01;12.20;;;6.43;;
12480;SDS011;6305;48.398;11.762;2023-03-13T01:20:28;13.13;;;6.57;;
12480;SDS011;6305;48.398;11.762;2023-03-13T01:22:56;11.63;;;7.60;;
12480;SDS011;6305;48.398;11.762;2023-03-13T01:25:23;15.77;;;7.47;;
12480;SDS011;6305;48.398;11.762;2023-03-13T01:27:52;16.90;;;8.10;;
12480;SDS011;6305;48.398;11.762;2023-03-13T01:30:20;11.50;;;7.10;;
12480;SDS011;6305;48.398;11.762;2023-03-13T01:32:47;12.63;;;6.53;;
12480;SDS011;6305;48.398;11.762;2023-03-13T01:35:14;14.32;;;6.57;;
12480;SDS011;6305;48.398;11.762;2023-03-13T01:37:42;15.20;;;6.43;;
12480;SDS011;6305;48.398;11.762;2023-03-13T01:40:10;11.50;;;6.47;;
12480;SDS011;6305;48.398;11.762;2023-03-13T01:48:19;10.33;;;6.53;;
12480;SDS011;6305;48.398;11.762;2023-03-13T01:50:47;13.33;;;6.40;;
12480;SDS011;6305;48.398;11.762;2023-03-13T01:53:22;10.40;;;6.60;;
12480;SDS011;6305;48.398;11.762;2023-03-13T01:55:50;11.83;;;7.07;;
12480;SDS011;6305;48.398;11.762;2023-03-13T01:58:21;11.03;;;6.63;;
12480;SDS011;6305;48.398;11.762;2023-03-13T02:00:49;8.13;;;5.67;;
12480;SDS011;6305;48.398;11.762;2023-03-13T02:03:16;11.37;;;5.57;;
12480;SDS011;6305;48.398;11.762;2023-03-13T02:05:45;9.50;;;5.70;;
12480;SDS011;6305;48.398;11.762;2023-03-13T02:08:15;7.93;;;4.50;;
12480;SDS011;6305;48.398;11.762;2023-03-13T02:10:47;9.70;;;4.67;;
12480;SDS011;6305;48.398;11.762;2023-03-13T02:13:17;7.67;;;3.87;;
12480;SDS011;6305;48.398;11.762;2023-03-13T02:15:47;7.70;;;3.70;;
12480;SDS011;6305;48.398;11.762;2023-03-13T02:18:15;7.37;;;3.67;;
12480;SDS011;6305;48.398;11.762;2023-03-13T02:20:44;6.80;;;3.70;;
12480;SDS011;6305;48.398;11.762;2023-03-13T02:23:17;8.13;;;3.60;;
12480;SDS011;6305;48.398;11.762;2023-03-13T02:25:49;7.40;;;3.57;;
12480;SDS011;6305;48.398;11.762;2023-03-13T02:28:22;8.20;;;3.60;;
12480;SDS011;6305;48.398;11.762;2023-03-13T02:30:53;6.83;;;4.10;;
12480;SDS011;6305;48.398;11.762;2023-03-13T02:33:24;8.67;;;4.17;;
12480;SDS011;6305;48.398;11.762;2023-03-13T02:35:52;9.10;;;3.73;;
12480;SDS011;6305;48.398;11.762;2023-03-13T02:38:21;7.67;;;3.63;;
12480;SDS011;6305;48.398;11.762;2023-03-13T02:40:52;9.97;;;4.10;;
12480;SDS011;6305;48.398;11.762;2023-03-13T02:43:22;7.63;;;4.53;;
12480;SDS011;6305;48.398;11.762;2023-03-13T02:45:59;10.53;;;4.53;;
12480;SDS011;6305;48.398;11.762;2023-03-13T02:48:30;10.03;;;4.63;;
12480;SDS011;6305;48.398;11.762;2023-03-13T02:50:58;8.20;;;4.27;;
12480;SDS011;6305;48.398;11.762;2023-03-13T02:53:27;15.87;;;5.00;;
12480;SDS011;6305;48.398;11.762;2023-03-13T02:55:57;12.27;;;4.72;;
12480;SDS011;6305;48.398;11.762;2023-03-13T02:58:24;12.10;;;5.20;;
12480;SDS011;6305;48.398;11.762;2023-03-13T03:00:51;11.00;;;5.40;;
12480;SDS011;6305;48.398;11.762;2023-03-13T03:03:20;8.38;;;5.28;;
12480;SDS011;6305;48.398;11.762;2023-03-13T03:05:47;11.35;;;5.88;;
12480;SDS011;6305;48.398;11.762;2023-03-13T03:08:14;14.20;;;6.53;;
12480;SDS011;6305;48.398;11.762;2023-03-13T03:10:41;11.95;;;5.88;;
12480;SDS011;6305;48.398;11.762;2023-03-13T03:13:09;10.75;;;6.25;;
12480;SDS011;6305;48.398;11.762;2023-03-13T03:15:36;12.48;;;6.75;;
12480;SDS011;6305;48.398;11.762;2023-03-13T03:18:03;13.07;;;6.32;;
12480;SDS011;6305;48.398;11.762;2023-03-13T03:20:30;10.25;;;6.05;;
12480;SDS011;6305;48.398;11.762;2023-03-13T03:22:57;12.77;;;6.85;;
12480;SDS011;6305;48.398;11.762;2023-03-13T03:25:25;11.75;;;6.40;;
12480;SDS011;6305;48.398;11.762;2023-03-13T03:27:52;12.73;;;6.50;;
12480;SDS011;6305;48.398;11.762;2023-03-13T03:30:21;12.68;;;6.07;;
12480;SDS011;6305;48.398;11.762;2023-03-13T03:32:49;10.23;;;5.22;;
12480;SDS011;6305;48.398;11.762;2023-03-13T03:35:19;13.15;;;6.15;;
12480;SDS011;6305;48.398;11.762;2023-03-13T03:37:46;11.63;;;6.13;;
12480;SDS011;6305;48.398;11.762;2023-03-13T03:40:13;10.30;;;5.57;;
12480;SDS011;6305;48.398;11.762;2023-03-13T03:42:42;13.38;;;6.15;;
12480;SDS011;6305;48.398;11.762;2023-03-13T03:45:09;13.97;;;7.03;;
12480;SDS011;6305;48.398;11.762;2023-03-13T03:47:38;16.08;;;6.65;;
12480;SDS011;6305;48.398;11.762;2023-03-13T03:50:05;13.60;;;6.25;;
12480;SDS011;6305;48.398;11.762;2023-03-13T03:52:42;9.07;;;6.03;;
12480;SDS011;6305;48.398;11.762;2023-03-13T03:55:09;12.00;;;6.22;;
12480;SDS011;6305;48.398;11.762;2023-03-13T03:57:36;13.68;;;6.68;;
12480;SDS011;6305;48.398;11.762;2023-03-13T04:00:07;13.95;;;5.72;;
12480;SDS011;6305;48.398;11.762;2023-03-13T04:02:42;12.30;;;5.93;;
12480;SDS011;6305;48.398;11.762;2023-03-13T04:05:09;11.38;;;5.03;;
12480;SDS011;6305;48.398;11.762;2023-03-13T04:07:38;10.85;;;5.85;;
12480;SDS011;6305;48.398;11.762;2023-03-13T04:10:05;11.98;;;5.78;;
12480;SDS011;6305;48.398;11.762;2023-03-13T04:12:38;8.65;;;5.10;;
12480;SDS011;6305;48.398;11.762;2023-03-13T04:15:06;10.27;;;5.13;;
12480;SDS011;6305;48.398;11.762;2023-03-13T04:17:35;8.85;;;5.22;;
12480;SDS011;6305;48.398;11.762;2023-03-13T04:20:04;8.70;;;3.95;;
12480;SDS011;6305;48.398;11.762;2023-03-13T04:22:32;6.97;;;4.15;;
12480;SDS011;6305;48.398;11.762;2023-03-13T04:25:00;7.33;;;4.33;;
12480;SDS011;6305;48.398;11.762;2023-03-13T04:27:29;7.65;;;4.07;;
12480;SDS011;6305;48.398;11.762;2023-03-13T04:29:58;7.75;;;3.85;;
12480;SDS011;6305;48.398;11.762;2023-03-13T04:32:57;5.87;;;3.50;;
12480;SDS011;6305;48.398;11.762;2023-03-13T04:35:40;5.90;;;3.90;;
12480;SDS011;6305;48.398;11.762;2023-03-13T04:38:28;6.32;;;2.95;;
12480;SDS011;6305;48.398;11.762;2023-03-13T04:41:14;6.22;;;3.47;;
12480;SDS011;6305;48.398;11.762;2023-03-13T04:44:07;5.57;;;3.42;;
12480;SDS011;6305;48.398;11.762;2023-03-13T04:46:49;5.15;;;2.80;;
12480;SDS011;6305;48.398;11.762;2023-03-13T04:49:32;7.78;;;3.17;;
12480;SDS011;6305;48.398;11.762;2023-03-13T04:52:17;7.25;;;3.50;;
12480;SDS011;6305;48.398;11.762;2023-03-13T04:55:07;5.55;;;3.45;;
12480;SDS011;6305;48.398;11.762;2023-03-13T04:57:51;6.20;;;2.95;;
12480;SDS011;6305;48.398;11.762;2023-03-13T05:00:42;7.40;;;3.22;;
12480;SDS011;6305;48.398;11.762;2023-03-13T05:03:20;6.00;;;3.33;;
12480;SDS011;6305;48.398;11.762;2023-03-13T05:06:06;5.50;;;3.65;;
12480;SDS011;6305;48.398;11.762;2023-03-13T05:08:38;6.45;;;3.30;;
12480;SDS011;6305;48.398;11.762;2023-03-13T05:11:31;6.10;;;3.33;;
12480;SDS011;6305;48.398;11.762;2023-03-13T05:14:08;5.20;;;3.13;;
12480;SDS011;6305;48.398;11.762;2023-03-13T05:16:55;7.03;;;3.65;;
12480;SDS011;6305;48.398;11.762;2023-03-13T05:19:41;7.45;;;3.85;;
12480;SDS011;6305;48.398;11.762;2023-03-13T05:22:28;8.35;;;4.32;;
12480;SDS011;6305;48.398;11.762;2023-03-13T05:25:15;6.35;;;3.83;;
12480;SDS011;6305;48.398;11.762;2023-03-13T05:27:58;9.55;;;4.15;;
12480;SDS011;6305;48.398;11.762;2023-03-13T05:30:36;5.28;;;3.55;;
12480;SDS011;6305;48.398;11.762;2023-03-13T05:33:12;4.28;;;2.67;;
12480;SDS011;6305;48.398;11.762;2023-03-13T05:36:07;5.93;;;3.42;;
12480;SDS011;6305;48.398;11.762;2023-03-13T05:38:44;7.13;;;4.13;;
12480;SDS011;6305;48.398;11.762;2023-03-13T05:41:30;5.60;;;3.80;;
12480;SDS011;6305;48.398;11.762;2023-03-13T05:44:15;8.18;;;4.25;;
12480;SDS011;6305;48.398;11.762;2023-03-13T05:47:06;9.00;;;4.10;;
12480;SDS011;6305;48.398;11.762;2023-03-13T05:49:49;7.07;;;3.97;;
12480;SDS011;6305;48.398;11.762;2023-03-13T05:52:30;8.45;;;4.20;;
12480;SDS011;6305;48.398;11.762;2023-03-13T05:55:20;7.25;;;4.30;;
12480;SDS011;6305;48.398;11.762;2023-03-13T05:58:14;7.95;;;4.50;;
12480;SDS011;6305;48.398;11.762;2023-03-13T06:00:49;6.40;;;4.22;;
12480;SDS011;6305;48.398;11.762;2023-03-13T06:03:42;8.05;;;4.43;;
12480;SDS011;6305;48.398;11.762;2023-03-13T06:06:11;6.85;;;4.40;;
12480;SDS011;6305;48.398;11.762;2023-03-13T06:08:44;8.38;;;4.30;;
12480;SDS011;6305;48.398;11.762;2023-03-13T06:11:12;7.45;;;4.78;;
12480;SDS011;6305;48.398;11.762;2023-03-13T06:13:42;6.63;;;4.70;;
12480;SDS011;6305;48.398;11.762;2023-03-13T06:16:25;6.88;;;4.38;;
12480;SDS011;6305;48.398;11.762;2023-03-13T06:18:56;7.78;;;4.40;;
12480;SDS011;6305;48.398;11.762;2023-03-13T06:21:23;6.35;;;4.75;;
12480;SDS011;6305;48.398;11.762;2023-03-13T06:23:50;8.68;;;4.93;;
12480;SDS011;6305;48.398;11.762;2023-03-13T06:26:17;9.05;;;5.63;;
12480;SDS011;6305;48.398;11.762;2023-03-13T06:28:46;9.48;;;4.88;;
12480;SDS011;6305;48.398;11.762;2023-03-13T06:31:14;10.35;;;6.03;;
12480;SDS011;6305;48.398;11.762;2023-03-13T06:33:41;9.07;;;4.78;;
12480;SDS011;6305;48.398;11.762;2023-03-13T06:36:08;6.95;;;4.60;;
12480;SDS011;6305;48.398;11.762;2023-03-13T06:38:35;7.45;;;4.03;;
12480;SDS011;6305;48.398;11.762;2023-03-13T06:41:02;7.97;;;4.53;;
12480;SDS011;6305;48.398;11.762;2023-03-13T06:43:30;7.63;;;4.38;;
12480;SDS011;6305;48.398;11.762;2023-03-13T06:46:01;5.70;;;4.38;;
12480;SDS011;6305;48.398;11.762;2023-03-13T06:48:29;5.05;;;3.67;;
12480;SDS011;6305;48.398;11.762;2023-03-13T06:50:56;5.50;;;3.65;;
12480;SDS011;6305;48.398;11.762;2023-03-13T06:53:23;6.05;;;3.92;;
12480;SDS011;6305;48.398;11.762;2023-03-13T06:55:51;4.35;;;3.20;;
12480;SDS011;6305;48.398;11.762;2023-03-13T06:58:18;6.03;;;3.65;;
12480;SDS011;6305;48.398;11.762;2023-03-13T07:00:45;5.75;;;3.67;;
12480;SDS011;6305;48.398;11.762;2023-03-13T07:03:13;4.78;;;2.92;;
12480;SDS011;6305;48.398;11.762;2023-03-13T07:05:40;4.13;;;3.10;;
12480;SDS011;6305;48.398;11.762;2023-03-13T07:08:08;4.78;;;3.25;;
12480;SDS011;6305;48.398;11.762;2023-03-13T07:10:35;5.57;;;3.08;;
12480;SDS011;6305;48.398;11.762;2023-03-13T07:13:03;4.82;;;3.38;;
12480;SDS011;6305;48.398;11.762;2023-03-13T07:15:31;4.15;;;3.40;;
12480;SDS011;6305;48.398;11.762;2023-03-13T07:17:58;4.70;;;3.42;;
12480;SDS011;6305;48.398;11.762;2023-03-13T07:20:26;4.43;;;3.65;;
12480;SDS011;6305;48.398;11.762;2023-03-13T07:22:53;5.05;;;3.63;;
12480;SDS011;6305;48.398;11.762;2023-03-13T07:25:20;5.10;;;3.30;;
12480;SDS011;6305;48.398;11.762;2023-03-13T07:27:49;4.40;;;3.30;;
12480;SDS011;6305;48.398;11.762;2023-03-13T07:30:17;4.28;;;3.03;;
12480;SDS011;6305;48.398;11.762;2023-03-13T07:32:44;5.95;;;2.85;;
12480;SDS011;6305;48.398;11.762;2023-03-13T07:35:11;3.13;;;2.60;;
12480;SDS011;6305;48.398;11.762;2023-03-13T07:37:41;5.72;;;2.40;;
12480;SDS011;6305;48.398;11.762;2023-03-13T07:40:08;5.35;;;2.17;;
12480;SDS011;6305;48.398;11.762;2023-03-13T07:42:38;4.63;;;2.30;;
12480;SDS011;6305;48.398;11.762;2023-03-13T07:45:05;2.45;;;1.80;;
12480;SDS011;6305;48.398;11.762;2023-03-13T07:47:33;3.13;;;1.83;;
12480;SDS011;6305;48.398;11.762;2023-03-13T07:50:01;2.30;;;1.77;;
12480;SDS011;6305;48.398;11.762;2023-03-13T07:52:28;2.70;;;2.00;;
12480;SDS011;6305;48.398;11.762;2023-03-13T07:54:59;3.38;;;1.70;;
12480;SDS011;6305;48.398;11.762;2023-03-13T07:57:26;2.40;;;1.50;;
12480;SDS011;6305;48.398;11.762;2023-03-13T07:59:53;2.80;;;1.10;;
12480;SDS011;6305;48.398;11.762;2023-03-13T08:02:21;2.78;;;1.50;;
12480;SDS011;6305;48.398;11.762;2023-03-13T08:04:50;1.88;;;1.58;;
12480;SDS011;6305;48.398;11.762;2023-03-13T08:07:18;2.28;;;1.52;;
12480;SDS011;6305;48.398;11.762;2023-03-13T08:09:45;4.07;;;1.95;;
12480;SDS011;6305;48.398;11.762;2023-03-13T08:12:13;2.30;;;1.70;;
12480;SDS011;6305;48.398;11.762;2023-03-13T08:14:40;3.60;;;1.80;;
12480;SDS011;6305;48.398;11.762;2023-03-13T08:17:07;2.17;;;1.70;;
12480;SDS011;6305;48.398;11.762;2023-03-13T08:19:34;4.07;;;1.63;;
12480;SDS011;6305;48.398;11.762;2023-03-13T08:22:02;4.72;;;1.60;;
12480;SDS011;6305;48.398;11.762;2023-03-13T08:24:29;2.97;;;1.77;;
12480;SDS011;6305;48.398;11.762;2023-03-13T08:26:56;4.07;;;1.63;;
12480;SDS011;6305;48.398;11.762;2023-03-13T08:29:25;4.78;;;2.00;;
12480;SDS011;6305;48.398;11.762;2023-03-13T08:31:52;5.13;;;1.88;;
12480;SDS011;6305;48.398;11.762;2023-03-13T08:34:20;4.10;;;2.03;;
12480;SDS011;6305;48.398;11.762;2023-03-13T08:36:47;3.60;;;2.75;;
12480;SDS011;6305;48.398;11.762;2023-03-13T08:39:15;5.35;;;2.20;;
12480;SDS011;6305;48.398;11.762;2023-03-13T08:41:43;2.97;;;1.67;;
12480;SDS011;6305;48.398;11.762;2023-03-13T08:44:11;3.05;;;1.80;;
12480;SDS011;6305;48.398;11.762;2023-03-13T08:46:42;2.97;;;1.92;;
12480;SDS011;6305;48.398;11.762;2023-03-13T08:49:09;3.10;;;1.70;;
12480;SDS011;6305;48.398;11.762;2023-03-13T08:51:37;1.95;;;1.10;;
12480;SDS011;6305;48.398;11.762;2023-03-13T08:54:05;2.83;;;1.33;;
12480;SDS011;6305;48.398;11.762;2023-03-13T08:56:32;1.77;;;1.10;;
12480;SDS011;6305;48.398;11.762;2023-03-13T08:59:00;1.90;;;1.20;;
12480;SDS011;6305;48.398;11.762;2023-03-13T09:01:28;2.75;;;1.08;;
12480;SDS011;6305;48.398;11.762;2023-03-13T09:03:58;1.92;;;1.10;;
12480;SDS011;6305;48.398;11.762;2023-03-13T09:06:25;1.30;;;1.10;;
12480;SDS011;6305;48.398;11.762;2023-03-13T09:08:55;2.67;;;1.30;;
12480;SDS011;6305;48.398;11.762;2023-03-13T09:11:22;2.63;;;1.50;;
12480;SDS011;6305;48.398;11.762;2023-03-13T09:13:49;2.50;;;1.27;;
12480;SDS011;6305;48.398;11.762;2023-03-13T09:16:17;1.58;;;1.00;;
12480;SDS011;6305;48.398;11.762;2023-03-13T09:18:45;2.05;;;1.00;;
12480;SDS011;6305;48.398;11.762;2023-03-13T09:21:15;2.75;;;1.00;;
12480;SDS011;6305;48.398;11.762;2023-03-13T09:23:44;2.55;;;1.00;;
12480;SDS011;6305;48.398;11.762;2023-03-13T09:26:11;1.98;;;1.15;;
12480;SDS011;6305;48.398;11.762;2023-03-13T09:28:39;2.90;;;1.00;;
12480;SDS011;6305;48.398;11.762;2023-03-13T09:31:07;1.60;;;1.13;;
12480;SDS011;6305;48.398;11.762;2023-03-13T09:33:35;3.05;;;1.05;;
12480;SDS011;6305;48.398;11.762;2023-03-13T09:36:03;1.00;;;0.82;;
12480;SDS011;6305;48.398;11.762;2023-03-13T09:38:32;1.27;;;0.98;;
12480;SDS011;6305;48.398;11.762;2023-03-13T09:41:01;2.53;;;1.13;;
12480;SDS011;6305;48.398;11.762;2023-03-13T09:43:34;1.23;;;0.90;;
12480;SDS011;6305;48.398;11.762;2023-03-13T09:46:08;1.33;;;0.88;;
12480;SDS011;6305;48.398;11.762;2023-03-13T09:48:42;1.90;;;1.05;;
12480;SDS011;6305;48.398;11.762;2023-03-13T09:51:12;2.05;;;0.90;;
12480;SDS011;6305;48.398;11.762;2023-03-13T09:53:45;0.93;;;0.77;;
12480;SDS011;6305;48.398;11.762;2023-03-13T09:56:18;0.68;;;0.65;;
12480;SDS011;6305;48.398;11.762;2023-03-13T09:58:51;0.60;;;0.40;;
12480;SDS011;6305;48.398;11.762;2023-03-13T10:01:23;0.52;;;0.50;;
12480;SDS011;6305;48.398;11.762;2023-03-13T10:03:55;2.13;;;0.40;;
12480;SDS011;6305;48.398;11.762;2023-03-13T10:06:28;0.80;;;0.50;;
12480;SDS011;6305;48.398;11.762;2023-03-13T10:09:02;2.60;;;0.80;;
12480;SDS011;6305;48.398;11.762;2023-03-13T10:11:32;0.60;;;0.52;;
12480;SDS011;6305;48.398;11.762;2023-03-13T10:14:09;0.63;;;0.63;;
12480;SDS011;6305;48.398;11.762;2023-03-13T10:16:43;0.60;;;0.50;;
12480;SDS011;6305;48.398;11.762;2023-03-13T10:19:15;0.95;;;0.40;;
12480;SDS011;6305;48.398;11.762;2023-03-13T10:21:46;0.60;;;0.32;;
12480;SDS011;6305;48.398;11.762;2023-03-13T10:24:17;0.50;;;0.50;;
12480;SDS011;6305;48.398;11.762;2023-03-13T10:26:49;1.10;;;0.50;;
12480;SDS011;6305;48.398;11.762;2023-03-13T10:29:19;0.93;;;0.70;;
12480;SDS011;6305;48.398;11.762;2023-03-13T10:31:50;0.98;;;0.57;;
12480;SDS011;6305;48.398;11.762;2023-03-13T10:34:21;1.23;;;0.47;;
12480;SDS011;6305;48.398;11.762;2023-03-13T10:36:50;0.47;;;0.47;;
12480;SDS011;6305;48.398;11.762;2023-03-13T10:39:24;0.70;;;0.50;;
12480;SDS011;6305;48.398;11.762;2023-03-13T10:41:55;0.70;;;0.60;;
12480;SDS011;6305;48.398;11.762;2023-03-13T10:44:28;0.73;;;0.52;;
12480;SDS011;6305;48.398;11.762;2023-03-13T10:46:58;1.05;;;0.60;;
12480;SDS011;6305;48.398;11.762;2023-03-13T10:49:27;0.95;;;0.40;;
12480;SDS011;6305;48.398;11.762;2023-03-13T10:51:55;1.23;;;0.50;;
12480;SDS011;6305;48.398;11.762;2023-03-13T10:54:27;0.85;;;0.60;;
12480;SDS011;6305;48.398;11.762;2023-03-13T10:57:13;0.50;;;0.50;;
12480;SDS011;6305;48.398;11.762;2023-03-13T10:59:52;0.68;;;0.45;;
12480;SDS011;6305;48.398;11.762;2023-03-13T11:02:22;0.95;;;0.60;;
12480;SDS011;6305;48.398;11.762;2023-03-13T11:04:52;0.88;;;0.50;;
12480;SDS011;6305;48.398;11.762;2023-03-13T11:07:20;1.65;;;0.70;;
12480;SDS011;6305;48.398;11.762;2023-03-13T11:10:00;1.88;;;0.68;;
12480;SDS011;6305;48.398;11.762;2023-03-13T11:12:32;1.30;;;0.70;;
12480;SDS011;6305;48.398;11.762;2023-03-13T11:15:00;0.85;;;0.60;;
12480;SDS011;6305;48.398;11.762;2023-03-13T11:17:29;1.25;;;0.65;;
12480;SDS011;6305;48.398;11.762;2023-03-13T11:20:03;0.55;;;0.40;;
12480;SDS011;6305;48.398;11.762;2023-03-13T11:22:49;0.77;;;0.50;;
12480;SDS011;6305;48.398;11.762;2023-03-13T11:25:23;0.70;;;0.60;;
12480;SDS011;6305;48.398;11.762;2023-03-13T11:28:15;1.20;;;0.60;;
12480;SDS011;6305;48.398;11.762;2023-03-13T11:33:37;0.98;;;0.50;;
12480;SDS011;6305;48.398;11.762;2023-03-13T11:36:13;0.50;;;0.50;;
12480;SDS011;6305;48.398;11.762;2023-03-13T11:38:50;0.95;;;0.75;;
12480;SDS011;6305;48.398;11.762;2023-03-13T11:41:30;1.10;;;0.70;;
12480;SDS011;6305;48.398;11.762;2023-03-13T11:44:14;0.80;;;0.70;;
12480;SDS011;6305;48.398;11.762;2023-03-13T11:47:16;1.10;;;0.57;;
12480;SDS011;6305;48.398;11.762;2023-03-13T11:49:55;0.77;;;0.60;;
12480;SDS011;6305;48.398;11.762;2023-03-13T11:52:36;0.50;;;0.40;;
12480;SDS011;6305;48.398;11.762;2023-03-13T11:55:11;0.40;;;0.40;;
12480;SDS011;6305;48.398;11.762;2023-03-13T11:58:01;1.20;;;0.60;;
12480;SDS011;6305;48.398;11.762;2023-03-13T12:00:46;1.77;;;0.80;;
12480;SDS011;6305;48.398;11.762;2023-03-13T12:03:25;1.08;;;0.60;;
12480;SDS011;6305;48.398;11.762;2023-03-13T12:06:01;0.75;;;0.60;;
12480;SDS011;6305;48.398;11.762;2023-03-13T12:08:33;0.93;;;0.70;;
12480;SDS011;6305;48.398;11.762;2023-03-13T12:11:05;0.80;;;0.70;;
12480;SDS011;6305;48.398;11.762;2023-03-13T12:13:43;1.92;;;0.77;;
12480;SDS011;6305;48.398;11.762;2023-03-13T12:16:15;2.50;;;0.77;;
12480;SDS011;6305;48.398;11.762;2023-03-13T12:18:46;1.10;;;0.90;;
12480;SDS011;6305;48.398;11.762;2023-03-13T12:21:16;1.23;;;0.80;;
12480;SDS011;6305;48.398;11.762;2023-03-13T12:23:48;1.08;;;0.90;;
12480;SDS011;6305;48.398;11.762;2023-03-13T12:26:25;0.70;;;0.70;;
12480;SDS011;6305;48.398;11.762;2023-03-13T12:29:04;1.33;;;0.82;;
12480;SDS011;6305;48.398;11.762;2023-03-13T12:31:39;1.52;;;0.80;;
12480;SDS011;6305;48.398;11.762;2023-03-13T12:34:11;0.60;;;0.60;;
12480;SDS011;6305;48.398;11.762;2023-03-13T12:36:45;1.13;;;0.55;;
12480;SDS011;6305;48.398;11.762;2023-03-13T12:39:19;2.58;;;0.80;;
12480;SDS011;6305;48.398;11.762;2023-03-13T12:41:59;1.13;;;0.90;;
12480;SDS011;6305;48.398;11.762;2023-03-13T12:44:46;1.00;;;0.88;;
12480;SDS011;6305;48.398;11.762;2023-03-13T12:47:15;2.55;;;0.80;;
12480;SDS011;6305;48.398;11.762;2023-03-13T12:55:53;2.05;;;0.90;;
12480;SDS011;6305;48.398;11.762;2023-03-13T12:58:44;0.73;;;0.70;;
12480;SDS011;6305;48.398;11.762;2023-03-13T13:01:18;0.60;;;0.60;;
12480;SDS011;6305;48.398;11.762;2023-03-13T13:03:54;2.35;;;0.90;;
12480;SDS011;6305;48.398;11.762;2023-03-13T13:06:23;2.08;;;0.90;;
12480;SDS011;6305;48.398;11.762;2023-03-13T13:09:05;1.30;;;0.93;;
12480;SDS011;6305;48.398;11.762;2023-03-13T13:17:27;2.08;;;1.00;;
12480;SDS011;6305;48.398;11.762;2023-03-13T13:22:54;1.33;;;0.90;;
12480;SDS011;6305;48.398;11.762;2023-03-13T13:25:30;1.50;;;1.00;;
12480;SDS011;6305;48.398;11.762;2023-03-13T13:30:53;3.35;;;1.73;;
12480;SDS011;6305;48.398;11.762;2023-03-13T13:36:27;2.05;;;0.90;;
12480;SDS011;6305;48.398;11.762;2023-03-13T13:38:56;2.78;;;1.38;;
12480;SDS011;6305;48.398;11.762;2023-03-13T13:41:25;2.28;;;1.10;;
12480;SDS011;6305;48.398;11.762;2023-03-13T13:44:19;3.28;;;1.00;;
12480;SDS011;6305;48.398;11.762;2023-03-13T13:46:48;3.17;;;1.38;;
12480;SDS011;6305;48.398;11.762;2023-03-13T13:49:17;1.58;;;1.10;;
12480;SDS011;6305;48.398;11.762;2023-03-13T13:54:54;2.83;;;1.10;;
12480;SDS011;6305;48.398;11.762;2023-03-13T13:57:23;1.27;;;1.05;;
12480;SDS011;6305;48.398;11.762;2023-03-13T13:59:51;2.55;;;1.00;;
12480;SDS011;6305;48.398;11.762;2023-03-13T14:02:25;2.13;;;1.30;;
12480;SDS011;6305;48.398;11.762;2023-03-13T14:05:03;1.33;;;1.10;;
12480;SDS011;6305;48.398;11.762;2023-03-13T14:07:39;1.65;;;0.80;;
12480;SDS011;6305;48.398;11.762;2023-03-13T14:10:29;1.80;;;0.98;;
12480;SDS011;6305;48.398;11.762;2023-03-13T14:13:08;1.50;;;0.80;;
12480;SDS011;6305;48.398;11.762;2023-03-13T14:15:40;2.60;;;1.05;;
12480;SDS011;6305;48.398;11.762;2023-03-13T14:18:09;2.22;;;1.58;;
12480;SDS011;6305;48.398;11.762;2023-03-13T14:20:51;0.95;;;0.80;;
12480;SDS011;6305;48.398;11.762;2023-03-13T14:23:31;2.38;;;0.80;;
12480;SDS011;6305;48.398;11.762;2023-03-13T14:26:08;1.80;;;1.00;;
12480;SDS011;6305;48.398;11.762;2023-03-13T14:28:42;2.90;;;0.93;;
12480;SDS011;6305;48.398;11.762;2023-03-13T14:31:19;1.45;;;0.95;;
12480;SDS011;6305;48.398;11.762;2023-03-13T14:33:48;2.17;;;1.00;;
12480;SDS011;6305;48.398;11.762;2023-03-13T14:36:16;1.85;;;1.27;;
12480;SDS011;6305;48.398;11.762;2023-03-13T14:38:50;1.52;;;1.00;;
12480;SDS011;6305;48.398;11.762;2023-03-13T14:41:21;1.10;;;1.00;;
12480;SDS011;6305;48.398;11.762;2023-03-13T14:43:49;0.88;;;0.73;;
12480;SDS011;6305;48.398;11.762;2023-03-13T14:46:20;1.67;;;0.90;;
12480;SDS011;6305;48.398;11.762;2023-03-13T14:48:54;1.50;;;1.17;;
12480;SDS011;6305;48.398;11.762;2023-03-13T14:51:23;3.70;;;0.90;;
12480;SDS011;6305;48.398;11.762;2023-03-13T14:53:52;1.10;;;0.80;;
12480;SDS011;6305;48.398;11.762;2023-03-13T14:56:28;3.30;;;1.42;;
12480;SDS011;6305;48.398;11.762;2023-03-13T14:59:11;1.33;;;0.90;;
12480;SDS011;6305;48.398;11.762;2023-03-13T15:01:41;1.65;;;1.10;;
12480;SDS011;6305;48.398;11.762;2023-03-13T15:04:08;2.75;;;1.38;;
12480;SDS011;6305;48.398;11.762;2023-03-13T15:06:37;3.08;;;1.10;;
12480;SDS011;6305;48.398;11.762;2023-03-13T15:09:16;1.52;;;0.90;;
12480;SDS011;6305;48.398;11.762;2023-03-13T15:11:55;1.52;;;0.93;;
12480;SDS011;6305;48.398;11.762;2023-03-13T15:14:34;2.05;;;1.00;;
12480;SDS011;6305;48.398;11.762;2023-03-13T15:17:03;5.13;;;1.08;;
12480;SDS011;6305;48.398;11.762;2023-03-13T15:19:49;1.27;;;1.05;;
12480;SDS011;6305;48.398;11.762;2023-03-13T15:22:20;0.95;;;0.93;;
12480;SDS011;6305;48.398;11.762;2023-03-13T15:24:52;1.45;;;0.93;;
12480;SDS011;6305;48.398;11.762;2023-03-13T15:27:20;1.08;;;0.70;;
12480;SDS011;6305;48.398;11.762;2023-03-13T15:29:49;1.17;;;0.70;;
12480;SDS011;6305;48.398;11.762;2023-03-13T15:32:23;3.33;;;0.95;;
12480;SDS011;6305;48.398;11.762;2023-03-13T15:35:07;1.95;;;1.05;;
12480;SDS011;6305;48.398;11.762;2023-03-13T15:37:49;1.92;;;0.98;;
12480;SDS011;6305;48.398;11.762;2023-03-13T15:40:16;2.20;;;0.70;;
12480;SDS011;6305;48.398;11.762;2023-03-13T15:42:44;1.48;;;0.80;;
12480;SDS011;6305;48.398;11.762;2023-03-13T15:45:11;2.50;;;1.00;;
12480;SDS011;6305;48.398;11.762;2023-03-13T15:47:43;1.50;;;0.75;;